map of CAY home
Great Circle Mapper logo
CAY - Airport
Location
City:  Cayenne, French Guiana
Name:Rochambeau
ICAO / IATA:SOCA / CAY

Details
Type:Airport (Aerodrome, Airfield)
Latitude:449'11"N (4.819722)
Longitude:5221'43"W (-52.361943)
Elevation:26 ft (8 m)
Variation:18.34W (WMM2015 magnetic declination)
-0.02 annual change
Runways:1
Longest:10499 × 148 ft (3200 × 45 m), paved

Time
Time Zone:UTC-3
Local Time:

Weather
METAR:SOCA 040630Z AUTO 00000KT 9999 BKN017/// BKN024/// OVC200/// 23/22 Q1010
TAF:SOCA 040500Z 0406/0506 VRB03KT 9999 BKN020 BKN040
BECMG 0411/0413 06012KT PROB40
TEMPO 0406/0424 3000 SHRA SCT012TCU PROB30
TEMPO 0413/0418 06016G28KT 1000 TSRA FEW012CB SCT015TCU BKN020
FM050100 04004KT 9999 SCT020 SCT045 PROB40
TEMPO 0504/0506 3000 SHRA FEW013TCU BKN016

Related Locations
Nearby:
Farthest:AMQ: 12350 mi / 19875 km
Ambon [Pattimura], ID

Find:

   beyond  
but within

Other Information
Maps:
NOTAMs:
Links:
Sources:

  
flag of French Guiana   

Sectional Chart

Flight Planning
at skyvector.com

Satellite Image

Google Maps Satellite View

 

Copyright © 2004-2015 Karl L. Swartz. All rights reserved.
The Great Circle Mapper name and logo are trademarks of the Great Circle Mapper.
All other trademarks mentioned herein belong to their respective owners.
Please see credits for attibutions and further copyright information.

  Follow gcmap on Facebook Follow gcmap on Twitter Follow gcmap on Google+

hCard Microformat

Geo Microformat